createdAt,value
2018-07-23T00:02:19.419Z,22.59
2018-07-23T00:04:48.496Z,22.63
2018-07-23T00:07:17.444Z,22.37
2018-07-23T00:09:46.480Z,22.38
2018-07-23T00:12:15.926Z,22.50
2018-07-23T00:14:44.887Z,22.54
2018-07-23T00:17:13.837Z,22.60
2018-07-23T00:19:42.853Z,22.58
2018-07-23T00:22:11.921Z,22.40
2018-07-23T00:24:41.318Z,22.57
2018-07-23T00:27:10.442Z,22.52
2018-07-23T00:29:39.395Z,22.55
2018-07-23T00:32:08.710Z,22.60
2018-07-23T00:34:37.738Z,22.58
2018-07-23T00:37:06.834Z,22.59
2018-07-23T00:39:36.184Z,22.49
2018-07-23T00:42:05.553Z,22.24
2018-07-23T00:44:34.590Z,22.20
2018-07-23T00:47:03.644Z,22.27
2018-07-23T00:49:32.680Z,22.30
2018-07-23T00:52:01.696Z,22.14
2018-07-23T00:54:30.644Z,21.94
2018-07-23T00:56:59.639Z,21.81
2018-07-23T00:59:28.772Z,22.01
2018-07-23T01:01:57.844Z,21.85
2018-07-23T01:04:26.818Z,21.89
2018-07-23T01:06:55.847Z,22.06
2018-07-23T01:09:24.800Z,22.06
2018-07-23T01:11:53.844Z,22.18
2018-07-23T01:14:22.840Z,22.24
2018-07-23T01:16:51.824Z,22.24
2018-07-23T01:19:20.824Z,22.25
2018-07-23T01:21:49.816Z,22.19
2018-07-23T01:24:18.880Z,22.18
2018-07-23T01:26:48.027Z,21.97
2018-07-23T01:29:17.008Z,21.93
2018-07-23T01:31:46.024Z,22.00
2018-07-23T01:34:15.332Z,22.04
2018-07-23T01:36:44.318Z,21.94
2018-07-23T01:39:13.348Z,21.83
2018-07-23T01:41:42.368Z,21.69
2018-07-23T01:44:11.360Z,21.75
2018-07-23T01:46:40.430Z,21.67
2018-07-23T01:49:09.404Z,21.75
2018-07-23T01:51:40.678Z,21.78
2018-07-23T01:54:10.690Z,21.74
2018-07-23T01:56:39.826Z,21.77
2018-07-23T01:59:08.828Z,21.80
2018-07-23T02:01:37.862Z,21.84
2018-07-23T02:04:07.578Z,21.88
2018-07-23T02:06:36.892Z,21.75
2018-07-23T02:09:11.612Z,21.77
2018-07-23T02:11:41.233Z,21.74
2018-07-23T02:14:10.282Z,21.67
2018-07-23T02:16:39.280Z,21.67
2018-07-23T02:19:11.507Z,21.64
2018-07-23T02:21:40.560Z,21.70
2018-07-23T02:24:09.584Z,21.72
2018-07-23T02:26:38.488Z,21.72
2018-07-23T02:29:07.448Z,21.72
2018-07-23T02:31:36.324Z,21.50
2018-07-23T02:34:05.229Z,21.67
2018-07-23T02:36:34.146Z,21.53
2018-07-23T02:39:03.201Z,21.47
2018-07-23T02:41:32.119Z,21.36
2018-07-23T02:44:01.054Z,21.21
2018-07-23T02:46:29.957Z,21.11
2018-07-23T02:48:58.885Z,21.29
2018-07-23T02:51:27.780Z,21.46
2018-07-23T02:53:56.676Z,21.12
2018-07-23T02:56:25.584Z,21.23
2018-07-23T02:58:54.467Z,21.32
2018-07-23T03:01:23.403Z,21.31
2018-07-23T03:03:56.173Z,21.29
2018-07-23T03:06:26.341Z,21.28
2018-07-23T03:08:55.365Z,21.19
2018-07-23T03:11:24.767Z,21.06
2018-07-23T03:13:53.709Z,21.14
2018-07-23T03:16:22.638Z,21.30
2018-07-23T03:18:52.013Z,21.08
2018-07-23T03:21:20.916Z,21.12
2018-07-23T03:23:49.811Z,21.31
2018-07-23T03:26:19.247Z,21.34
2018-07-23T03:28:48.180Z,21.22
2018-07-23T03:31:17.416Z,21.14
2018-07-23T03:33:46.307Z,21.30
2018-07-23T03:36:15.243Z,21.24
2018-07-23T03:38:44.180Z,21.40
2018-07-23T03:41:13.080Z,21.24
2018-07-23T03:43:42.137Z,21.27
2018-07-23T03:46:11.067Z,21.11
2018-07-23T03:48:40.005Z,20.99
2018-07-23T03:51:08.911Z,21.01
2018-07-23T03:53:37.851Z,21.16
2018-07-23T03:56:07.018Z,21.28
2018-07-23T03:58:36.029Z,21.26
2018-07-23T04:01:04.985Z,21.18
2018-07-23T04:03:33.903Z,21.12
2018-07-23T04:06:02.897Z,21.09
2018-07-23T04:08:31.781Z,20.95
2018-07-23T04:11:00.695Z,21.29
2018-07-23T04:13:29.601Z,21.26
2018-07-23T04:15:58.512Z,20.60
2018-07-23T04:18:27.431Z,21.08
2018-07-23T04:20:56.370Z,20.92
2018-07-23T04:23:25.320Z,21.12
2018-07-23T04:25:54.232Z,21.20
2018-07-23T04:28:23.135Z,21.37
2018-07-23T04:30:52.431Z,21.43
2018-07-23T04:33:22.193Z,21.41
2018-07-23T04:35:51.183Z,21.53
2018-07-23T04:38:20.165Z,21.53
2018-07-23T04:40:49.144Z,21.25
2018-07-23T04:43:18.034Z,21.50
2018-07-23T04:45:46.931Z,21.31
2018-07-23T04:48:15.822Z,21.45
2018-07-23T04:50:44.815Z,21.57
2018-07-23T04:53:13.754Z,21.52
2018-07-23T04:55:42.695Z,21.44
2018-07-23T04:58:11.611Z,21.29
2018-07-23T05:00:40.546Z,21.28
2018-07-23T05:03:09.495Z,21.34
2018-07-23T05:05:38.377Z,21.48
2018-07-23T05:08:07.398Z,21.54
2018-07-23T05:10:36.294Z,21.44
2018-07-23T05:13:05.579Z,21.56
2018-07-23T05:15:34.504Z,21.54
2018-07-23T05:18:03.408Z,21.47
2018-07-23T05:20:32.343Z,21.63
2018-07-23T05:23:01.276Z,21.74
2018-07-23T05:25:31.440Z,21.44
2018-07-23T05:28:00.388Z,21.29
2018-07-23T05:30:29.296Z,21.31
2018-07-23T05:32:58.309Z,21.35
2018-07-23T05:35:27.270Z,21.48
2018-07-23T05:37:56.221Z,21.60
2018-07-23T05:40:25.151Z,21.65
2018-07-23T05:42:54.088Z,21.65
2018-07-23T05:45:22.999Z,21.51
2018-07-23T05:47:51.954Z,21.64
2018-07-23T05:50:20.906Z,21.51
2018-07-23T05:52:49.821Z,21.66
2018-07-23T05:55:18.745Z,21.68
2018-07-23T05:57:47.713Z,21.60
2018-07-23T06:00:16.641Z,21.67
2018-07-23T06:02:45.604Z,21.79
2018-07-23T06:05:14.580Z,21.75
2018-07-23T06:07:43.557Z,21.77
2018-07-23T06:10:12.569Z,21.88
2018-07-23T06:12:41.509Z,21.67
2018-07-23T06:15:11.723Z,21.77
2018-07-23T06:17:40.835Z,21.86
2018-07-23T06:20:10.163Z,21.64
2018-07-23T06:22:39.084Z,21.83
2018-07-23T06:25:09.384Z,21.87
2018-07-23T06:27:38.319Z,21.88
2018-07-23T06:30:09.561Z,22.07
2018-07-23T06:32:38.623Z,22.12
2018-07-23T06:35:07.635Z,22.03
2018-07-23T06:37:36.716Z,22.10
2018-07-23T06:40:09.245Z,22.08
2018-07-23T06:42:38.159Z,21.92
2018-07-23T06:45:07.124Z,21.97
2018-07-23T06:47:36.076Z,22.07
2018-07-23T06:50:05.799Z,22.22
2018-07-23T06:52:34.761Z,22.48
2018-07-23T06:55:03.725Z,22.69
2018-07-23T06:57:32.706Z,23.09
2018-07-23T07:00:01.645Z,23.20
2018-07-23T07:02:30.599Z,23.46
2018-07-23T07:04:59.511Z,23.62
2018-07-23T07:07:28.469Z,24.01
2018-07-23T07:09:57.965Z,24.24
2018-07-23T07:12:26.890Z,24.47
2018-07-23T07:14:55.871Z,24.72
2018-07-23T07:17:24.801Z,24.87
2018-07-23T07:19:53.804Z,24.80
2018-07-23T07:22:22.849Z,24.86
2018-07-23T07:24:51.933Z,24.99
2018-07-23T07:27:21.369Z,25.09
2018-07-23T07:29:50.273Z,25.39
2018-07-23T07:32:19.223Z,25.27
2018-07-23T07:34:48.248Z,25.12
2018-07-23T07:37:17.248Z,25.28
2018-07-23T07:39:46.177Z,25.42
2018-07-23T07:42:15.108Z,25.59
2018-07-23T07:44:44.109Z,25.47
2018-07-23T07:47:13.065Z,25.51
2018-07-23T07:49:42.035Z,25.31
2018-07-23T07:52:11.019Z,25.17
2018-07-23T07:54:40.068Z,25.57
2018-07-23T07:57:08.999Z,25.45
2018-07-23T07:59:37.921Z,25.42
2018-07-23T08:02:06.918Z,25.43
2018-07-23T08:04:36.093Z,25.31
2018-07-23T08:07:05.067Z,25.38
2018-07-23T08:09:33.988Z,25.32
2018-07-23T08:12:03.016Z,25.44
2018-07-23T08:14:32.574Z,25.39
2018-07-23T08:17:01.626Z,25.59
2018-07-23T08:19:30.540Z,25.69
2018-07-23T08:21:59.451Z,25.87
2018-07-23T08:24:28.380Z,25.91
2018-07-23T08:26:57.334Z,25.77
2018-07-23T08:29:26.348Z,25.79
2018-07-23T08:31:55.392Z,25.99
2018-07-23T08:34:24.753Z,25.63
2018-07-23T08:36:53.752Z,25.84
2018-07-23T08:39:22.694Z,25.67
2018-07-23T08:41:52.478Z,25.89
2018-07-23T08:44:21.433Z,25.99
2018-07-23T08:46:50.344Z,25.84
2018-07-23T08:49:24.714Z,25.82
2018-07-23T08:51:59.336Z,25.84
2018-07-23T08:54:28.266Z,25.70
2018-07-23T08:56:57.220Z,25.84
2018-07-23T08:59:26.147Z,25.85
2018-07-23T09:01:55.060Z,25.85
2018-07-23T09:04:24.120Z,25.93
2018-07-23T09:06:53.125Z,26.07
2018-07-23T09:09:22.112Z,26.10
2018-07-23T09:11:51.056Z,26.30
2018-07-23T09:14:20.353Z,26.79
2018-07-23T09:16:49.250Z,26.37
2018-07-23T09:19:18.142Z,26.40
2018-07-23T09:21:47.082Z,26.35
2018-07-23T09:24:16.029Z,26.35
2018-07-23T09:26:45.678Z,26.03
2018-07-23T09:29:14.581Z,26.39
2018-07-23T09:31:43.544Z,26.63
2018-07-23T09:34:12.442Z,26.73
2018-07-23T09:36:41.352Z,26.69
2018-07-23T09:39:10.785Z,26.78
2018-07-23T09:41:39.814Z,26.36
2018-07-23T09:44:08.794Z,26.58
2018-07-23T09:46:37.722Z,26.18
2018-07-23T09:49:06.660Z,26.22
2018-07-23T09:51:35.569Z,26.58
2018-07-23T09:54:04.597Z,26.66
2018-07-23T09:56:33.508Z,26.92
2018-07-23T09:59:02.438Z,26.47
2018-07-23T10:01:31.370Z,26.51
2018-07-23T10:04:00.376Z,26.57
2018-07-23T10:06:29.332Z,26.57
2018-07-23T10:08:58.301Z,26.59
2018-07-23T10:11:27.217Z,27.03
2018-07-23T10:13:56.111Z,27.15
2018-07-23T10:16:25.093Z,27.12
2018-07-23T10:18:53.987Z,26.89
2018-07-23T10:21:22.953Z,26.76
2018-07-23T10:23:51.984Z,26.25
2018-07-23T10:26:20.891Z,26.66
2018-07-23T10:28:49.794Z,26.86
2018-07-23T10:31:18.812Z,27.05
2018-07-23T10:33:49.192Z,27.19
2018-07-23T10:36:18.097Z,26.69
2018-07-23T10:38:47.020Z,26.33
2018-07-23T10:41:16.412Z,26.50
2018-07-23T10:43:45.299Z,26.45
2018-07-23T10:46:14.230Z,26.47
2018-07-23T10:48:43.205Z,26.27
2018-07-23T10:51:12.137Z,26.44
2018-07-23T10:53:41.136Z,26.45
2018-07-23T10:56:10.056Z,26.62
2018-07-23T10:58:39.016Z,26.53
2018-07-23T11:01:07.981Z,26.42
2018-07-23T11:03:36.886Z,26.73
2018-07-23T11:06:05.950Z,26.64
2018-07-23T11:08:34.942Z,26.80
2018-07-23T11:11:03.912Z,26.94
2018-07-23T11:13:33.136Z,27.00
2018-07-23T11:16:02.066Z,26.90
2018-07-23T11:18:30.988Z,26.93
2018-07-23T11:20:59.894Z,27.00
2018-07-23T11:23:28.814Z,26.97
2018-07-23T11:25:57.729Z,26.68
2018-07-23T11:28:29.668Z,26.63
2018-07-23T11:30:58.660Z,27.41
2018-07-23T11:33:27.563Z,27.45
2018-07-23T11:35:56.549Z,27.18
2018-07-23T11:38:25.490Z,27.01
2018-07-23T11:40:56.633Z,27.12
2018-07-23T11:43:25.574Z,27.21
2018-07-23T11:45:54.493Z,27.23
2018-07-23T11:48:23.415Z,27.08
2018-07-23T11:50:52.467Z,27.30
2018-07-23T11:53:22.637Z,27.12
2018-07-23T11:55:51.593Z,27.35
2018-07-23T11:58:20.580Z,27.16
2018-07-23T12:00:50.109Z,27.12
2018-07-23T12:03:19.229Z,27.12
2018-07-23T12:05:48.155Z,27.31
2018-07-23T12:08:17.152Z,27.14
2018-07-23T12:10:46.149Z,27.18
2018-07-23T12:13:15.239Z,27.44
2018-07-23T12:15:44.499Z,27.21
2018-07-23T12:18:13.508Z,27.43
2018-07-23T12:20:42.521Z,27.23
2018-07-23T12:23:11.906Z,27.20
2018-07-23T12:25:41.868Z,27.24
2018-07-23T12:28:11.831Z,27.38
2018-07-23T12:30:41.523Z,27.35
2018-07-23T12:33:10.719Z,27.29
2018-07-23T12:35:39.639Z,27.40
2018-07-23T12:38:08.547Z,27.56
2018-07-23T12:40:37.499Z,27.15
2018-07-23T12:43:06.557Z,27.44
2018-07-23T12:45:35.545Z,27.32
2018-07-23T12:48:04.487Z,27.37
2018-07-23T12:50:33.431Z,27.40
2018-07-23T12:53:02.359Z,27.53
2018-07-23T12:55:31.336Z,27.41
2018-07-23T12:58:00.215Z,27.32
2018-07-23T13:00:29.222Z,27.36
2018-07-23T13:02:58.135Z,27.41
2018-07-23T13:05:31.837Z,27.41
2018-07-23T13:08:01.899Z,27.46
2018-07-23T13:10:30.811Z,27.31
2018-07-23T13:12:59.932Z,27.60
2018-07-23T13:15:28.893Z,27.47
2018-07-23T13:17:58.812Z,27.46
2018-07-23T13:20:27.767Z,27.34
2018-07-23T13:22:56.683Z,27.33
2018-07-23T13:25:25.616Z,27.45
2018-07-23T13:27:54.654Z,27.68
2018-07-23T13:30:23.583Z,27.74
2018-07-23T13:32:52.747Z,27.71
2018-07-23T13:35:21.640Z,27.72
2018-07-23T13:37:50.598Z,27.77
2018-07-23T13:40:19.616Z,27.86
2018-07-23T13:42:48.505Z,27.75
2018-07-23T13:45:17.481Z,27.86
2018-07-23T13:47:46.513Z,27.86
2018-07-23T13:50:15.505Z,27.92
2018-07-23T13:52:45.043Z,27.77
2018-07-23T13:55:14.002Z,27.69
2018-07-23T13:57:43.032Z,27.86
2018-07-23T14:00:11.945Z,27.85
2018-07-23T14:02:40.907Z,27.95
2018-07-23T14:05:09.868Z,27.84
2018-07-23T14:07:38.807Z,27.65
2018-07-23T14:10:07.766Z,27.46
2018-07-23T14:12:37.627Z,27.73
2018-07-23T14:15:06.578Z,28.00
2018-07-23T14:17:35.417Z,27.92
2018-07-23T14:20:04.463Z,27.90
2018-07-23T14:22:33.369Z,27.97
2018-07-23T14:25:02.327Z,27.97
2018-07-23T14:27:31.195Z,27.87
2018-07-23T14:30:00.120Z,27.93
2018-07-23T14:32:29.062Z,27.91
2018-07-23T14:34:57.958Z,27.94
2018-07-23T14:37:26.904Z,27.82
2018-07-23T14:39:55.790Z,27.85
2018-07-23T14:42:24.770Z,28.02
2018-07-23T14:44:53.662Z,27.83
2018-07-23T14:47:22.577Z,27.87
2018-07-23T14:49:51.611Z,27.81
2018-07-23T14:52:20.483Z,27.74
2018-07-23T14:54:49.426Z,28.02
2018-07-23T14:57:18.337Z,28.08
2018-07-23T14:59:47.246Z,27.87
2018-07-23T15:02:16.208Z,27.94
2018-07-23T15:04:45.184Z,27.93
2018-07-23T15:07:14.093Z,27.76
2018-07-23T15:09:43.879Z,27.74
2018-07-23T15:12:12.868Z,27.92
2018-07-23T15:14:41.780Z,27.98
2018-07-23T15:17:10.682Z,27.98
2018-07-23T15:19:39.621Z,28.06
2018-07-23T15:22:09.038Z,28.02
2018-07-23T15:24:37.941Z,28.09
2018-07-23T15:27:06.916Z,28.05
2018-07-23T15:29:35.833Z,28.13
2018-07-23T15:32:05.507Z,28.12
2018-07-23T15:34:34.411Z,28.07
2018-07-23T15:37:03.333Z,28.12
2018-07-23T15:39:32.243Z,28.05
2018-07-23T15:42:01.429Z,28.09
2018-07-23T15:44:30.524Z,28.02
2018-07-23T15:46:59.267Z,27.99
2018-07-23T15:49:28.151Z,27.99
2018-07-23T15:51:57.181Z,28.08
2018-07-23T15:54:26.059Z,28.05
2018-07-23T15:56:55.001Z,28.06
2018-07-23T15:59:23.965Z,28.22
2018-07-23T16:01:53.893Z,28.05
2018-07-23T16:04:22.807Z,27.98
2018-07-23T16:06:51.679Z,27.95
2018-07-23T16:09:20.704Z,28.02
2018-07-23T16:11:49.588Z,27.98
2018-07-23T16:14:18.489Z,28.12
2018-07-23T16:16:47.403Z,28.06
2018-07-23T16:19:16.875Z,28.00
2018-07-23T16:21:45.959Z,28.02
2018-07-23T16:24:14.853Z,27.94
2018-07-23T16:26:43.795Z,28.01
2018-07-23T16:29:14.463Z,28.04
2018-07-23T16:31:43.340Z,28.14
2018-07-23T16:34:12.286Z,28.20
2018-07-23T16:36:41.186Z,28.18
2018-07-23T16:39:12.078Z,28.23
2018-07-23T16:41:41.292Z,28.35
2018-07-23T16:44:10.396Z,28.33
2018-07-23T16:46:39.380Z,28.27
2018-07-23T16:49:08.255Z,28.37
2018-07-23T16:51:37.192Z,28.33
2018-07-23T16:54:06.184Z,28.36
2018-07-23T16:56:35.012Z,28.34
2018-07-23T16:59:04.013Z,28.23
2018-07-23T17:01:32.911Z,28.38
2018-07-23T17:04:01.846Z,28.28
2018-07-23T17:06:30.780Z,28.26
2018-07-23T17:08:59.775Z,28.35
2018-07-23T17:11:28.763Z,28.29
2018-07-23T17:13:57.661Z,28.23
2018-07-23T17:16:26.588Z,28.25
2018-07-23T17:18:55.543Z,28.22
2018-07-23T17:21:24.484Z,28.21
2018-07-23T17:23:53.426Z,28.17
2018-07-23T17:26:22.326Z,28.18
2018-07-23T17:28:51.337Z,28.05
2018-07-23T17:31:20.213Z,28.05
2018-07-23T17:33:55.664Z,28.07
2018-07-23T17:36:24.626Z,28.00
2018-07-23T17:38:53.533Z,28.06
2018-07-23T17:41:22.558Z,28.09
2018-07-23T17:43:51.520Z,28.06
2018-07-23T17:46:20.439Z,28.07
2018-07-23T17:48:49.718Z,28.23
2018-07-23T17:51:18.612Z,28.13
2018-07-23T17:53:47.698Z,28.23
2018-07-23T17:56:16.602Z,28.21
2018-07-23T17:58:45.544Z,28.13
2018-07-23T18:01:14.443Z,28.06
2018-07-23T18:03:43.332Z,28.02
2018-07-23T18:06:12.261Z,28.02
2018-07-23T18:08:41.189Z,27.98
2018-07-23T18:11:10.187Z,28.01
2018-07-23T18:13:39.154Z,28.02
2018-07-23T18:16:08.425Z,28.04
2018-07-23T18:18:37.372Z,27.95
2018-07-23T18:21:06.255Z,28.05
2018-07-23T18:23:35.198Z,28.00
2018-07-23T18:26:04.133Z,27.94
2018-07-23T18:28:33.148Z,27.85
2018-07-23T18:31:02.175Z,27.84
2018-07-23T18:33:31.113Z,27.81
2018-07-23T18:36:00.807Z,27.75
2018-07-23T18:38:29.881Z,27.69
2018-07-23T18:40:58.695Z,27.64
2018-07-23T18:43:27.791Z,27.66
2018-07-23T18:45:56.795Z,27.68
2018-07-23T18:49:37.320Z,27.68
2018-07-23T18:52:06.321Z,27.68
2018-07-23T18:54:35.675Z,27.72
2018-07-23T18:57:06.553Z,27.69
2018-07-23T18:59:35.578Z,27.66
2018-07-23T19:02:06.921Z,27.62
2018-07-23T19:04:35.963Z,27.58
2018-07-23T19:07:05.340Z,27.55
2018-07-23T19:09:34.315Z,27.52
2018-07-23T19:12:03.303Z,27.48
2018-07-23T19:14:32.203Z,27.48
2018-07-23T19:17:02.155Z,27.47
2018-07-23T19:19:31.100Z,27.43
2018-07-23T19:22:00.160Z,27.39
2018-07-23T19:24:29.115Z,27.36
2018-07-23T19:26:58.019Z,27.31
2018-07-23T19:29:26.995Z,27.28
2018-07-23T19:31:56.024Z,27.26
2018-07-23T19:34:24.941Z,27.23
2018-07-23T19:36:53.923Z,27.24
2018-07-23T19:39:23.112Z,27.21
2018-07-23T19:41:52.091Z,27.21
2018-07-23T19:44:21.009Z,27.24
2018-07-23T19:46:49.945Z,27.21
2018-07-23T19:49:19.003Z,27.18
2018-07-23T19:51:47.967Z,27.17
2018-07-23T19:54:16.835Z,27.14
2018-07-23T19:56:45.728Z,27.12
2018-07-23T19:59:14.664Z,27.13
2018-07-23T20:01:43.581Z,27.11
2018-07-23T20:04:12.517Z,27.11
2018-07-23T20:06:41.425Z,27.10
2018-07-23T20:09:11.243Z,27.10
2018-07-23T20:11:41.059Z,27.09
2018-07-23T20:14:09.968Z,27.08
2018-07-23T20:16:38.828Z,27.08
2018-07-23T20:19:07.748Z,27.06
2018-07-23T20:21:36.667Z,27.03
2018-07-23T20:24:05.663Z,27.00
2018-07-23T20:26:34.567Z,26.91
2018-07-23T20:29:03.567Z,26.83
2018-07-23T20:31:32.436Z,26.81
2018-07-23T20:34:01.401Z,26.79
2018-07-23T20:36:30.287Z,26.80
2018-07-23T20:38:59.249Z,26.77
2018-07-23T20:41:28.121Z,26.67
2018-07-23T20:43:57.159Z,26.58
2018-07-23T20:46:26.069Z,26.50
2018-07-23T20:48:55.027Z,26.39
2018-07-23T20:51:24.057Z,26.28
2018-07-23T20:53:53.173Z,26.29
2018-07-23T20:56:22.124Z,26.28
2018-07-23T20:58:51.085Z,26.29
2018-07-23T21:01:20.008Z,26.25
2018-07-23T21:03:49.005Z,26.16
2018-07-23T21:06:17.895Z,26.11
2018-07-23T21:08:46.897Z,26.07
2018-07-23T21:11:15.922Z,26.14
2018-07-23T21:13:45.122Z,26.18
2018-07-23T21:16:14.056Z,26.10
2018-07-23T21:18:43.020Z,26.07
2018-07-23T21:21:11.929Z,26.03
2018-07-23T21:23:40.877Z,26.05
2018-07-23T21:26:09.907Z,25.94
2018-07-23T21:28:38.865Z,26.00
2018-07-23T21:31:07.935Z,25.98
2018-07-23T21:33:36.866Z,25.97
2018-07-23T21:36:05.840Z,25.99
2018-07-23T21:38:34.836Z,25.99
2018-07-23T21:41:03.756Z,25.99
2018-07-23T21:43:32.706Z,25.98
2018-07-23T21:46:01.607Z,25.92
2018-07-23T21:48:31.321Z,25.95
2018-07-23T21:51:00.225Z,25.97
2018-07-23T21:53:29.315Z,25.83
2018-07-23T21:55:58.187Z,25.82
2018-07-23T21:58:27.098Z,25.80
2018-07-23T22:00:56.074Z,25.85
2018-07-23T22:03:24.937Z,25.87
2018-07-23T22:05:53.964Z,25.86
2018-07-23T22:08:22.967Z,25.78
2018-07-23T22:10:52.749Z,25.83
2018-07-23T22:13:21.663Z,25.82
2018-07-23T22:15:50.583Z,25.76
2018-07-23T22:18:19.468Z,25.74
2018-07-23T22:20:48.441Z,25.74
2018-07-23T22:23:17.433Z,25.61
2018-07-23T22:25:46.416Z,25.49
2018-07-23T22:28:15.310Z,25.52
2018-07-23T22:30:44.256Z,25.52
2018-07-23T22:33:13.176Z,25.44
2018-07-23T22:35:42.353Z,25.42
2018-07-23T22:38:11.250Z,25.41
2018-07-23T22:40:40.173Z,25.34
2018-07-23T22:43:09.165Z,25.40
2018-07-23T22:45:38.165Z,25.31
2018-07-23T22:48:07.300Z,25.34
2018-07-23T22:50:36.198Z,25.37
2018-07-23T22:53:05.253Z,25.36
2018-07-23T22:55:34.729Z,25.34
2018-07-23T22:58:03.620Z,25.25
2018-07-23T23:00:33.606Z,25.18
2018-07-23T23:03:02.552Z,25.26
2018-07-23T23:05:31.776Z,25.25
2018-07-23T23:08:00.664Z,25.24
2018-07-23T23:10:29.555Z,25.21
2018-07-23T23:12:58.507Z,25.12
2018-07-23T23:15:28.246Z,25.16
2018-07-23T23:17:57.155Z,25.12
2018-07-23T23:20:26.142Z,25.19
2018-07-23T23:22:56.042Z,25.15
2018-07-23T23:25:24.991Z,25.19
2018-07-23T23:27:53.856Z,25.15
2018-07-23T23:30:22.809Z,25.06
2018-07-23T23:32:51.805Z,25.10
2018-07-23T23:35:21.804Z,25.04
2018-07-23T23:37:50.718Z,24.98
2018-07-23T23:40:19.621Z,24.97
2018-07-23T23:42:48.588Z,25.01
2018-07-23T23:45:17.465Z,24.94
2018-07-23T23:47:46.383Z,25.03
2018-07-23T23:50:15.272Z,25.00
2018-07-23T23:52:44.190Z,25.03
2018-07-23T23:55:13.284Z,25.11
2018-07-23T23:57:42.230Z,25.09
